Time;durP1;ratioP1;P1;durP2;ratioP2;P2;SDS_P1;SDS_P2;PMS_P1;PMS_P2;Temp;Humidity;BMP_temperature;BMP_pressure;BME280_temperature;BME280_humidity;BME280_pressure;Samples;Min_cycle;Max_cycle;Signal;HPM_P1;HPM_P2
2022/03/31 00:01:33;;;;;;;6.75;1.45;;;5.20;99.90;;;;;;5093341;28;20047;-60
2022/03/31 00:03:59;;;;;;;4.55;0.88;;;5.20;99.90;;;;;;5093271;28;20035;-61
2022/03/31 00:06:25;;;;;;;2.92;1.00;;;5.20;99.90;;;;;;5093328;28;20040;-60
2022/03/31 00:08:51;;;;;;;4.22;1.08;;;5.00;99.90;;;;;;5093121;28;20039;-60
2022/03/31 00:11:17;;;;;;;5.93;1.10;;;5.00;99.90;;;;;;5092207;28;20183;-60
2022/03/31 00:13:43;;;;;;;6.60;1.15;;;4.80;99.90;;;;;;5093311;28;20119;-60
2022/03/31 00:16:10;;;;;;;5.68;0.88;;;4.80;99.90;;;;;;5092944;28;20182;-60
2022/03/31 00:18:37;;;;;;;5.45;1.48;;;4.80;99.90;;;;;;5093029;28;20553;-60
2022/03/31 00:21:03;;;;;;;4.20;0.85;;;4.80;99.90;;;;;;5092794;28;20087;-60
2022/03/31 00:23:29;;;;;;;17.60;1.67;;;4.80;99.90;;;;;;5092953;28;20082;-60
2022/03/31 00:25:55;;;;;;;6.10;0.90;;;4.80;99.90;;;;;;5092814;28;20052;-60
2022/03/31 00:28:22;;;;;;;5.30;0.80;;;4.80;99.90;;;;;;5093281;28;20036;-60
2022/03/31 00:30:48;;;;;;;4.95;0.80;;;4.80;99.90;;;;;;5092382;28;20051;-60
2022/03/31 00:33:14;;;;;;;9.13;1.20;;;4.80;99.90;;;;;;5092836;28;20052;-60
2022/03/31 00:35:40;;;;;;;7.47;1.17;;;4.80;99.90;;;;;;5092622;28;20431;-60
2022/03/31 00:38:05;;;;;;;2.60;0.70;;;5.40;99.90;;;;;;5092627;28;20028;-60
2022/03/31 00:40:32;;;;;;;4.35;0.60;;;4.80;99.90;;;;;;5092765;28;20122;-60
2022/03/31 00:42:59;;;;;;;5.65;0.90;;;4.70;99.90;;;;;;5091245;28;20061;-59
2022/03/31 00:45:32;;;;;;;5.22;0.68;;;4.70;99.90;;;;;;5092555;28;20478;-61
2022/03/31 00:47:58;;;;;;;3.63;0.85;;;4.50;99.90;;;;;;5092294;28;20075;-60
2022/03/31 00:50:24;;;;;;;4.60;0.80;;;4.60;99.90;;;;;;5092511;28;20079;-60
2022/03/31 00:52:50;;;;;;;4.88;0.75;;;4.60;99.90;;;;;;5092630;28;20452;-60
2022/03/31 00:55:18;;;;;;;5.78;0.80;;;4.60;99.90;;;;;;5092727;28;20047;-60
2022/03/31 00:57:45;;;;;;;6.35;1.02;;;4.60;99.90;;;;;;5092495;28;20513;-61
2022/03/31 01:00:14;;;;;;;6.03;1.00;;;4.40;99.90;;;;;;5092369;28;20376;-60
2022/03/31 01:02:43;;;;;;;2.38;0.70;;;4.40;99.90;;;;;;5092043;28;20113;-61
2022/03/31 01:05:09;;;;;;;3.90;1.10;;;4.30;99.90;;;;;;5092333;28;20047;-60
2022/03/31 01:07:37;;;;;;;2.17;0.60;;;4.30;99.90;;;;;;5092234;28;20077;-60
2022/03/31 01:10:04;;;;;;;2.40;0.73;;;4.30;99.90;;;;;;5092059;28;20051;-60
2022/03/31 01:12:30;;;;;;;3.72;1.75;;;4.30;99.90;;;;;;5092132;28;20040;-60
2022/03/31 01:15:21;;;;;;;3.83;0.73;;;4.30;99.90;;;;;;5091988;28;20040;-60
2022/03/31 01:17:47;;;;;;;;;;;4.30;99.90;;;;;;5092350;28;20498;-61
2022/03/31 01:20:15;;;;;;;2.65;1.05;;;4.20;99.90;;;;;;5091845;28;19942;-61
2022/03/31 01:22:44;;;;;;;2.40;0.80;;;4.20;99.90;;;;;;5090278;28;20056;-60
2022/03/31 01:25:10;;;;;;;4.20;1.08;;;4.30;99.90;;;;;;5091973;28;20044;-60
2022/03/31 01:27:38;;;;;;;1.75;0.98;;;4.20;99.90;;;;;;5091980;28;20043;-60
2022/03/31 01:30:08;;;;;;;5.65;2.00;;;4.20;99.90;;;;;;5092105;28;20036;-60
2022/03/31 01:32:34;;;;;;;4.03;1.70;;;4.20;99.90;;;;;;5092277;28;20040;-60
2022/03/31 01:35:01;;;;;;;5.75;2.35;;;4.20;99.90;;;;;;5092071;28;20119;-60
2022/03/31 01:37:27;;;;;;;8.05;2.50;;;4.20;99.90;;;;;;5092035;28;20043;-60
2022/03/31 01:39:53;;;;;;;5.28;2.97;;;4.10;99.90;;;;;;5090907;28;20052;-60
2022/03/31 01:42:18;;;;;;;4.47;2.70;;;4.10;99.90;;;;;;5092978;28;20039;-60
2022/03/31 01:44:44;;;;;;;3.63;2.80;;;4.00;99.90;;;;;;5096018;28;20562;-60
2022/03/31 01:47:10;;;;;;;8.38;3.40;;;4.10;99.90;;;;;;5095065;28;20044;-60
2022/03/31 01:49:37;;;;;;;6.10;3.10;;;4.10;99.90;;;;;;5096125;28;20505;-60
2022/03/31 01:52:04;;;;;;;4.97;2.83;;;4.10;99.90;;;;;;5096020;28;20040;-60
2022/03/31 01:54:30;;;;;;;6.63;3.30;;;4.20;99.90;;;;;;5096012;28;20115;-60
2022/03/31 01:56:55;;;;;;;7.70;3.30;;;4.20;99.90;;;;;;5095840;28;20127;-60
2022/03/31 01:59:21;;;;;;;7.97;3.20;;;4.10;99.90;;;;;;5094549;28;20049;-60
2022/03/31 02:01:48;;;;;;;6.15;3.10;;;4.20;99.90;;;;;;5095889;28;20083;-60
2022/03/31 02:04:17;;;;;;;4.30;3.25;;;4.20;99.90;;;;;;5096039;28;20100;-60
2022/03/31 02:06:43;;;;;;;5.60;3.20;;;4.20;99.90;;;;;;5095955;28;20067;-60
2022/03/31 02:09:09;;;;;;;6.25;3.55;;;4.20;99.90;;;;;;5095858;28;20074;-60
2022/03/31 02:11:35;;;;;;;4.97;3.70;;;4.10;99.90;;;;;;5095705;28;20040;-60
2022/03/31 02:14:00;;;;;;;5.18;3.55;;;4.20;99.90;;;;;;5095329;28;20059;-61
2022/03/31 02:16:26;;;;;;;8.48;3.80;;;4.20;99.90;;;;;;5095751;28;20036;-61
2022/03/31 02:18:52;;;;;;;6.95;3.85;;;4.20;99.90;;;;;;5094329;28;20063;-60
2022/03/31 02:21:17;;;;;;;6.55;4.00;;;4.20;99.90;;;;;;5095202;28;20060;-61
2022/03/31 02:23:43;;;;;;;8.85;4.20;;;4.20;99.90;;;;;;5095367;28;20040;-60
2022/03/31 02:26:09;;;;;;;5.20;4.70;;;4.20;99.90;;;;;;5095154;28;20044;-60
2022/03/31 02:28:34;;;;;;;5.28;4.35;;;4.20;99.90;;;;;;5095405;28;20059;-60
2022/03/31 02:31:00;;;;;;;10.15;4.55;;;4.20;99.90;;;;;;5095110;28;20102;-60
2022/03/31 02:33:26;;;;;;;7.57;4.97;;;4.20;99.90;;;;;;5095121;28;20044;-60
2022/03/31 02:35:51;;;;;;;8.10;5.47;;;4.20;99.90;;;;;;5094953;28;20032;-60
2022/03/31 02:38:17;;;;;;;10.70;5.75;;;4.10;99.90;;;;;;5094907;28;20051;-60
2022/03/31 02:40:42;;;;;;;6.93;5.35;;;4.10;99.90;;;;;;5094482;28;20036;-60
2022/03/31 02:43:10;;;;;;;7.82;5.30;;;4.10;99.90;;;;;;5094996;28;20040;-60
2022/03/31 02:45:36;;;;;;;9.13;5.25;;;4.00;99.90;;;;;;5095020;28;20101;-60
2022/03/31 02:48:02;;;;;;;9.02;5.47;;;4.10;99.90;;;;;;5094870;28;20036;-61
2022/03/31 02:50:28;;;;;;;10.60;5.15;;;4.10;99.90;;;;;;5095231;28;20044;-60
2022/03/31 02:55:38;;;;;;;6.47;5.47;;;4.10;99.90;;;;;;5094785;28;20127;-60
2022/03/31 02:58:04;;;;;;;8.30;6.20;;;4.10;99.90;;;;;;5094617;28;20128;-61
2022/03/31 03:00:32;;;;;;;8.50;6.90;;;4.10;99.90;;;;;;5127394;27;20082;-61
2022/03/31 03:02:59;;;;;;;9.73;6.80;;;4.10;99.90;;;;;;5094398;28;20040;-59
2022/03/31 03:05:24;;;;;;;9.63;6.75;;;4.00;99.90;;;;;;5093240;28;20467;-60
2022/03/31 03:07:50;;;;;;;8.70;6.38;;;4.10;99.90;;;;;;5094267;28;20075;-61
2022/03/31 03:10:16;;;;;;;6.80;5.80;;;4.10;99.90;;;;;;5094315;28;20040;-60
2022/03/31 03:12:42;;;;;;;7.15;5.57;;;4.10;99.90;;;;;;5094389;28;20040;-60
2022/03/31 03:15:11;;;;;;;6.88;5.00;;;4.00;99.90;;;;;;5094366;28;20047;-60
2022/03/31 03:17:45;;;;;;;6.43;4.53;;;4.00;99.90;;;;;;5094622;28;20039;-60
2022/03/31 03:20:16;;;;;;;6.47;4.70;;;4.00;99.90;;;;;;5094018;28;20047;-60
2022/03/31 03:22:44;;;;;;;8.07;5.47;;;4.00;99.90;;;;;;5093988;28;20056;-60
2022/03/31 03:25:11;;;;;;;9.93;7.95;;;3.90;99.90;;;;;;5094116;28;20040;-60
2022/03/31 03:27:40;;;;;;;12.55;10.63;;;3.90;99.90;;;;;;5094087;28;20032;-60
2022/03/31 03:30:07;;;;;;;12.82;10.82;;;3.90;99.90;;;;;;5094277;28;20066;-60
2022/03/31 03:32:34;;;;;;;12.70;11.13;;;3.70;99.90;;;;;;5093872;28;20040;-60
2022/03/31 03:35:00;;;;;;;11.98;8.98;;;3.80;99.90;;;;;;5093716;28;20046;-60
2022/03/31 03:37:26;;;;;;;8.30;7.40;;;3.70;99.90;;;;;;5094108;28;20036;-59
2022/03/31 03:39:52;;;;;;;6.90;4.72;;;3.60;99.90;;;;;;5093615;28;20125;-60
2022/03/31 03:42:18;;;;;;;6.03;4.22;;;3.60;99.90;;;;;;5093686;28;20047;-60
2022/03/31 03:44:43;;;;;;;4.20;3.80;;;3.50;99.90;;;;;;5093703;28;20047;-60
2022/03/31 03:47:09;;;;;;;4.25;3.85;;;3.60;99.90;;;;;;5093618;28;20515;-60
2022/03/31 03:49:35;;;;;;;2.83;2.55;;;3.60;99.90;;;;;;5093765;28;20050;-60
2022/03/31 03:52:00;;;;;;;3.05;2.75;;;3.60;99.90;;;;;;5094024;28;20408;-60
2022/03/31 03:54:27;;;;;;;2.72;2.33;;;3.50;99.90;;;;;;5093588;28;20509;-60
2022/03/31 03:56:52;;;;;;;3.13;2.80;;;3.60;99.90;;;;;;5093445;28;20066;-60
2022/03/31 03:59:18;;;;;;;3.97;2.60;;;3.50;99.90;;;;;;5093461;28;20040;-60
2022/03/31 04:01:44;;;;;;;3.08;2.70;;;3.50;99.90;;;;;;5093241;28;20044;-60
2022/03/31 04:04:10;;;;;;;3.40;3.10;;;3.50;99.90;;;;;;5093602;28;20079;-60
2022/03/31 04:06:36;;;;;;;3.88;3.50;;;3.40;99.90;;;;;;5092898;28;20032;-60
2022/03/31 04:09:03;;;;;;;3.78;3.42;;;3.40;99.90;;;;;;5093189;28;20086;-60
2022/03/31 04:11:28;;;;;;;4.80;3.90;;;3.30;99.90;;;;;;5093115;28;20439;-60
2022/03/31 04:13:54;;;;;;;5.28;3.65;;;3.30;99.90;;;;;;5093147;28;20028;-60
2022/03/31 04:16:20;;;;;;;4.97;4.07;;;3.30;99.90;;;;;;5092957;28;20032;-60
2022/03/31 04:18:45;;;;;;;4.05;3.60;;;3.20;99.90;;;;;;5092782;28;20513;-59
2022/03/31 04:21:11;;;;;;;4.22;2.85;;;3.20;99.90;;;;;;5092959;28;20044;-60
2022/03/31 04:23:37;;;;;;;6.93;3.30;;;3.20;99.90;;;;;;5093013;28;20135;-60
2022/03/31 04:26:03;;;;;;;3.83;2.83;;;3.20;99.90;;;;;;5092952;28;20441;-60
2022/03/31 04:28:29;;;;;;;2.55;2.33;;;3.20;99.90;;;;;;5091776;28;20048;-60
2022/03/31 04:30:54;;;;;;;3.13;2.55;;;3.20;99.90;;;;;;5091649;28;20040;-59
2022/03/31 04:33:20;;;;;;;3.47;2.38;;;3.10;99.90;;;;;;5092966;28;20549;-60
2022/03/31 04:35:46;;;;;;;6.43;2.80;;;3.00;99.90;;;;;;5093037;28;20036;-60
2022/03/31 04:38:11;;;;;;;2.60;2.40;;;3.00;99.90;;;;;;5091534;28;20040;-60
2022/03/31 04:40:37;;;;;;;5.00;2.83;;;3.00;99.90;;;;;;5093055;28;20539;-59
2022/03/31 04:43:03;;;;;;;3.28;2.80;;;3.10;99.90;;;;;;5092653;28;20032;-59
2022/03/31 04:45:28;;;;;;;4.45;2.50;;;3.00;99.90;;;;;;5092843;28;20121;-60
2022/03/31 04:47:54;;;;;;;3.63;2.72;;;2.90;99.90;;;;;;5092626;28;20038;-60
2022/03/31 04:50:20;;;;;;;6.65;2.85;;;3.00;99.90;;;;;;5092621;28;20097;-59
2022/03/31 04:52:46;;;;;;;4.43;2.72;;;3.00;99.90;;;;;;5092566;28;20034;-60
2022/03/31 04:55:12;;;;;;;3.90;2.60;;;3.10;99.90;;;;;;5092553;28;20055;-60
2022/03/31 04:57:37;;;;;;;3.17;2.72;;;3.10;99.90;;;;;;5092402;28;20045;-60
2022/03/31 05:00:05;;;;;;;4.65;3.10;;;3.10;99.90;;;;;;5092643;28;20139;-60
2022/03/31 05:02:31;;;;;;;3.53;2.90;;;3.00;99.90;;;;;;5092203;28;20044;-60
2022/03/31 05:04:56;;;;;;;3.97;3.20;;;2.90;99.90;;;;;;5092332;28;20035;-60
2022/03/31 05:07:22;;;;;;;4.80;3.15;;;3.00;99.90;;;;;;5092316;28;20032;-60
2022/03/31 05:09:48;;;;;;;6.85;3.25;;;3.00;99.90;;;;;;5090872;28;20048;-60
2022/03/31 05:12:13;;;;;;;4.63;3.20;;;3.00;99.90;;;;;;5092474;28;20036;-60
2022/03/31 05:14:40;;;;;;;4.65;3.17;;;3.00;99.90;;;;;;5092434;28;20455;-60
2022/03/31 05:17:06;;;;;;;3.63;3.28;;;3.00;99.90;;;;;;5092299;28;20080;-59
2022/03/31 05:19:33;;;;;;;3.53;3.15;;;2.90;99.90;;;;;;5092598;28;20553;-61
2022/03/31 05:21:58;;;;;;;4.63;3.70;;;3.00;99.90;;;;;;5092194;28;20159;-60
2022/03/31 05:24:24;;;;;;;4.82;3.05;;;3.10;99.90;;;;;;5092080;28;20536;-60
2022/03/31 05:26:52;;;;;;;6.72;3.97;;;3.10;99.90;;;;;;5092296;28;20085;-60
2022/03/31 05:29:19;;;;;;;3.67;3.33;;;3.10;99.90;;;;;;5092063;28;20040;-60
2022/03/31 05:31:44;;;;;;;6.40;4.25;;;3.10;99.90;;;;;;5092052;28;20052;-61
2022/03/31 05:34:10;;;;;;;3.90;3.60;;;3.10;99.90;;;;;;5092299;28;20133;-60
2022/03/31 05:36:36;;;;;;;4.93;3.90;;;3.10;99.90;;;;;;5092138;28;20036;-60
2022/03/31 05:39:03;;;;;;;4.43;4.03;;;3.10;99.90;;;;;;5092092;28;20036;-60
2022/03/31 05:41:28;;;;;;;5.45;3.90;;;3.20;99.90;;;;;;5090659;28;20044;-60
2022/03/31 05:43:54;;;;;;;4.25;3.85;;;3.20;99.90;;;;;;5091909;28;20078;-60
2022/03/31 05:46:24;;;;;;;4.63;3.70;;;3.10;99.90;;;;;;5092122;28;20024;-60
2022/03/31 05:48:50;;;;;;;4.05;3.65;;;3.20;99.90;;;;;;5092074;28;20127;-60
2022/03/31 05:51:16;;;;;;;4.40;4.00;;;3.10;99.90;;;;;;5092096;28;20083;-60
2022/03/31 05:53:42;;;;;;;4.70;4.22;;;3.10;99.90;;;;;;5073858;28;20052;-60
2022/03/31 05:56:08;;;;;;;4.53;4.10;;;3.10;99.90;;;;;;5091798;28;20040;-59
2022/03/31 05:58:35;;;;;;;4.95;4.45;;;3.10;99.90;;;;;;5091726;28;20043;-60
2022/03/31 06:01:01;;;;;;;5.53;4.80;;;3.10;99.90;;;;;;5091962;28;20089;-60
2022/03/31 06:03:27;;;;;;;5.68;4.47;;;3.20;99.90;;;;;;5091810;28;20036;-60
2022/03/31 06:05:53;;;;;;;5.38;4.85;;;3.10;99.90;;;;;;5091770;28;20363;-60
2022/03/31 06:08:19;;;;;;;6.05;5.45;;;3.20;99.90;;;;;;5091742;28;20115;-60
2022/03/31 06:10:45;;;;;;;5.78;5.25;;;3.20;99.90;;;;;;5091760;28;20093;-60
2022/03/31 06:13:12;;;;;;;5.35;4.85;;;3.20;99.90;;;;;;5091518;28;20040;-61
2022/03/31 06:15:38;;;;;;;5.50;5.00;;;3.10;99.90;;;;;;5091721;28;20104;-61
2022/03/31 06:18:06;;;;;;;6.05;5.13;;;3.20;99.90;;;;;;5091647;28;20048;-61
2022/03/31 06:20:34;;;;;;;5.28;4.78;;;3.20;99.90;;;;;;5091551;28;20047;-61
2022/03/31 06:23:00;;;;;;;5.05;4.65;;;3.10;99.90;;;;;;5091487;28;20090;-61
2022/03/31 06:25:26;;;;;;;4.75;4.35;;;3.10;99.90;;;;;;5091409;28;20032;-61
2022/03/31 06:27:52;;;;;;;5.55;4.80;;;3.10;99.90;;;;;;5091559;28;20036;-61
2022/03/31 06:30:18;;;;;;;5.35;4.85;;;3.00;99.90;;;;;;5094628;28;20039;-61
2022/03/31 06:32:44;;;;;;;5.93;5.32;;;3.10;99.90;;;;;;5095077;28;20036;-61
2022/03/31 06:35:14;;;;;;;5.35;4.85;;;3.00;99.90;;;;;;5092897;28;20052;-61
2022/03/31 06:37:41;;;;;;;5.28;4.78;;;3.10;99.90;;;;;;5095244;28;20040;-61
2022/03/31 06:40:07;;;;;;;5.90;5.30;;;3.10;99.90;;;;;;5094901;28;20043;-61
2022/03/31 06:42:33;;;;;;;7.13;6.43;;;3.10;99.90;;;;;;5094787;28;20036;-61
2022/03/31 06:44:58;;;;;;;6.97;6.32;;;3.10;99.90;;;;;;5094890;28;20051;-61
2022/03/31 06:47:24;;;;;;;7.22;6.55;;;3.10;99.90;;;;;;5094069;28;20040;-61
2022/03/31 06:49:50;;;;;;;7.07;6.38;;;3.10;99.90;;;;;;5094784;28;20042;-58
2022/03/31 06:52:15;;;;;;;7.55;6.78;;;3.10;99.90;;;;;;5094787;28;20083;-59
2022/03/31 06:54:41;;;;;;;7.57;6.88;;;3.10;99.90;;;;;;5076389;28;20075;-59
2022/03/31 06:57:07;;;;;;;7.13;6.47;;;3.10;99.90;;;;;;5094529;28;20063;-58
2022/03/31 06:59:33;;;;;;;7.25;6.55;;;3.10;99.90;;;;;;5093518;28;20378;-59
2022/03/31 07:01:59;;;;;;;7.65;6.95;;;3.10;99.90;;;;;;5094518;28;20036;-60
2022/03/31 07:04:25;;;;;;;8.10;7.30;;;3.20;99.90;;;;;;5094371;28;20043;-58
2022/03/31 07:06:51;;;;;;;8.13;7.32;;;3.20;99.90;;;;;;5094403;28;20093;-59
2022/03/31 07:09:17;;;;;;;8.05;7.35;;;3.20;99.90;;;;;;5094481;28;20042;-58
2022/03/31 07:11:42;;;;;;;8.02;7.22;;;3.10;99.90;;;;;;5094277;28;20044;-59
2022/03/31 07:14:08;;;;;;;8.38;7.57;;;3.20;99.90;;;;;;5094345;28;20075;-59
2022/03/31 07:16:34;;;;;;;8.80;7.90;;;3.20;99.90;;;;;;5094008;28;20048;-59
2022/03/31 07:19:01;;;;;;;8.93;8.02;;;3.20;99.90;;;;;;5094234;28;20115;-59
2022/03/31 07:21:27;;;;;;;8.40;7.50;;;3.20;99.90;;;;;;5094026;28;20124;-59
2022/03/31 07:23:53;;;;;;;9.63;8.63;;;3.20;99.90;;;;;;5093207;28;20072;-59
2022/03/31 07:26:19;;;;;;;9.15;8.25;;;3.20;99.90;;;;;;5094084;28;20038;-60
2022/03/31 07:28:45;;;;;;;8.40;7.57;;;3.10;99.90;;;;;;5094331;28;20114;-61
2022/03/31 07:31:12;;;;;;;8.20;7.35;;;3.20;99.90;;;;;;5093869;28;20040;-60
2022/03/31 07:33:38;;;;;;;10.10;9.10;;;3.30;99.90;;;;;;5094101;28;20059;-60
2022/03/31 07:36:04;;;;;;;10.90;9.00;;;3.30;99.90;;;;;;5093860;28;20086;-59
2022/03/31 07:38:30;;;;;;;9.32;8.38;;;3.30;99.90;;;;;;5094000;28;20048;-60
2022/03/31 07:40:56;;;;;;;9.48;8.57;;;3.30;99.90;;;;;;5093914;28;20051;-60
2022/03/31 07:43:22;;;;;;;9.80;8.80;;;3.40;99.90;;;;;;5092687;28;20497;-60
2022/03/31 07:45:47;;;;;;;10.60;9.52;;;3.40;99.90;;;;;;5093028;28;20048;-60
2022/03/31 07:48:15;;;;;;;10.95;8.45;;;3.40;99.90;;;;;;5093751;28;20040;-60
2022/03/31 07:50:42;;;;;;;9.25;8.35;;;3.40;99.90;;;;;;5093867;28;20048;-60
2022/03/31 07:53:09;;;;;;;8.95;8.05;;;3.40;99.90;;;;;;5094207;28;20044;-60
2022/03/31 07:55:35;;;;;;;8.40;7.60;;;3.50;99.90;;;;;;5092030;28;20180;-60
2022/03/31 07:58:00;;;;;;;8.80;7.93;;;3.50;99.90;;;;;;5094519;28;20064;-60
2022/03/31 08:00:26;;;;;;;9.07;8.02;;;3.50;99.90;;;;;;5093366;28;20540;-60
2022/03/31 08:02:52;;;;;;;7.57;6.78;;;3.50;99.90;;;;;;5099895;28;20075;-60
2022/03/31 08:05:24;;;;;;;7.75;7.05;;;3.40;99.90;;;;;;5092435;28;20114;-61
2022/03/31 08:07:51;;;;;;;7.38;6.60;;;3.30;99.90;;;;;;5093239;28;20455;-60
2022/03/31 08:10:17;;;;;;;7.18;6.22;;;3.30;99.90;;;;;;5093255;28;20433;-60
2022/03/31 08:12:45;;;;;;;8.77;7.15;;;3.30;99.90;;;;;;5093043;28;20079;-60
2022/03/31 08:15:15;;;;;;;7.63;6.85;;;3.20;99.90;;;;;;5093068;28;20040;-60
2022/03/31 08:17:41;;;;;;;8.27;7.47;;;3.20;99.90;;;;;;5093417;28;20079;-61
2022/03/31 08:20:09;;;;;;;8.02;7.22;;;3.10;99.90;;;;;;5093159;28;20093;-60
2022/03/31 08:22:36;;;;;;;8.45;7.65;;;3.10;99.90;;;;;;5093019;28;20059;-60
2022/03/31 08:25:03;;;;;;;8.50;7.60;;;3.10;99.90;;;;;;5091686;28;20384;-60
2022/03/31 08:27:30;;;;;;;9.10;7.95;;;3.10;99.90;;;;;;5093414;28;20391;-60
2022/03/31 08:29:55;;;;;;;8.93;8.02;;;3.10;99.90;;;;;;5091830;28;20040;-60
2022/03/31 08:32:21;;;;;;;9.30;8.20;;;3.00;99.90;;;;;;5103920;28;20104;-60
2022/03/31 08:34:47;;;;;;;9.60;8.60;;;3.00;99.90;;;;;;5113048;28;20075;-60
2022/03/31 08:37:14;;;;;;;8.82;7.93;;;3.00;99.90;;;;;;5111579;28;20063;-60
2022/03/31 08:39:40;;;;;;;8.35;7.55;;;3.00;99.90;;;;;;5112572;28;20040;-60
2022/03/31 08:42:06;;;;;;;8.93;8.02;;;3.00;99.90;;;;;;5112706;28;20095;-60
2022/03/31 08:44:34;;;;;;;10.65;8.63;;;3.00;99.90;;;;;;5112882;28;20036;-60
2022/03/31 08:47:00;;;;;;;9.00;7.95;;;2.90;99.90;;;;;;5112671;28;20478;-60
2022/03/31 08:49:27;;;;;;;10.15;8.95;;;2.90;99.90;;;;;;5112691;28;20066;-60
2022/03/31 08:51:53;;;;;;;10.50;8.65;;;3.00;99.90;;;;;;5112372;28;20050;-60
2022/03/31 08:54:19;;;;;;;9.98;8.93;;;3.00;99.90;;;;;;5112888;28;20036;-61
2022/03/31 08:56:44;;;;;;;10.95;9.52;;;3.00;99.90;;;;;;5113052;28;20039;-60
2022/03/31 08:59:10;;;;;;;13.18;10.55;;;3.00;99.90;;;;;;5112633;28;20043;-60
2022/03/31 09:01:39;;;;;;;13.27;10.82;;;3.00;99.90;;;;;;5112596;28;20118;-60
2022/03/31 09:04:18;;;;;;;13.13;11.23;;;2.90;99.90;;;;;;5113069;28;20054;-60
2022/03/31 09:06:43;;;;;;;13.02;10.90;;;2.90;99.90;;;;;;5112751;28;20067;-60
2022/03/31 09:09:11;;;;;;;13.30;11.65;;;2.80;99.90;;;;;;5112584;28;20129;-60
2022/03/31 09:11:37;;;;;;;14.18;10.85;;;2.60;99.90;;;;;;5112512;28;20090;-60
2022/03/31 09:14:05;;;;;;;12.73;10.68;;;2.60;99.90;;;;;;5112556;28;20047;-59
2022/03/31 09:16:34;;;;;;;12.85;10.23;;;2.50;99.90;;;;;;5112366;28;20040;-60
2022/03/31 09:19:05;;;;;;;12.10;9.88;;;2.40;99.90;;;;;;5112439;28;20123;-61
2022/03/31 09:21:31;;;;;;;10.35;8.45;;;2.50;99.90;;;;;;5112123;28;20493;-61
2022/03/31 09:23:58;;;;;;;9.80;8.38;;;2.40;99.90;;;;;;5111942;28;20482;-61
2022/03/31 09:26:27;;;;;;;8.77;7.88;;;2.30;99.90;;;;;;5112264;28;20036;-62
2022/03/31 09:28:53;;;;;;;;;;;2.30;99.90;;;;;;5112601;28;20047;-61
2022/03/31 09:31:26;;;;;;;7.65;6.78;;;2.20;99.90;;;;;;5112244;28;20378;-60
2022/03/31 09:33:56;;;;;;;7.20;6.25;;;2.20;99.90;;;;;;5112002;28;20085;-61
2022/03/31 09:36:23;;;;;;;7.75;6.95;;;2.10;99.90;;;;;;5112177;28;20085;-61
2022/03/31 09:39:03;;;;;;;7.28;5.97;;;2.10;99.90;;;;;;5112242;28;20042;-61
2022/03/31 09:41:34;;;;;;;6.03;5.43;;;2.10;99.90;;;;;;5112049;28;20039;-60
2022/03/31 09:44:03;;;;;;;6.68;5.90;;;2.10;99.90;;;;;;5112067;28;20119;-60
2022/03/31 09:46:35;;;;;;;6.18;5.57;;;2.10;99.90;;;;;;5112065;28;20042;-60
2022/03/31 09:49:24;;;;;;;6.20;5.60;;;2.00;99.90;;;;;;5112415;28;20111;-60
2022/03/31 09:51:52;;;;;;;7.45;5.90;;;1.90;99.90;;;;;;5112032;28;20035;-61
2022/03/31 09:54:20;;;;;;;5.87;5.27;;;2.00;99.90;;;;;;5112102;28;20043;-60
2022/03/31 09:56:47;;;;;;;9.63;6.97;;;1.90;99.90;;;;;;5112048;28;20046;-60
2022/03/31 09:59:14;;;;;;;6.97;6.28;;;1.90;99.90;;;;;;5112061;28;20046;-60
2022/03/31 10:01:41;;;;;;;8.65;6.72;;;1.90;99.90;;;;;;5111833;28;20123;-60
2022/03/31 10:04:08;;;;;;;7.75;6.72;;;1.90;99.90;;;;;;5114176;28;20118;-60
2022/03/31 10:06:35;;;;;;;8.18;6.68;;;1.80;99.90;;;;;;5116033;28;20085;-60
2022/03/31 10:09:03;;;;;;;8.68;6.85;;;1.80;99.90;;;;;;5115817;27;20123;-60
2022/03/31 10:11:31;;;;;;;6.60;5.75;;;1.80;99.90;;;;;;5115961;28;20393;-59
2022/03/31 10:14:21;;;;;;;7.22;6.03;;;1.70;99.90;;;;;;5115772;28;20481;-60
2022/03/31 10:16:55;;;;;;;8.10;6.68;;;1.70;99.90;;;;;;5115618;28;20516;-59
2022/03/31 10:19:38;;;;;;;8.80;6.97;;;1.70;99.90;;;;;;5115944;28;20039;-60
2022/03/31 10:25:05;;;;;;;6.97;6.00;;;1.60;99.90;;;;;;5115835;28;20092;-61
2022/03/31 10:27:33;;;;;;;;;;;1.60;99.90;;;;;;5115971;28;20370;-60
2022/03/31 10:30:09;;;;;;;7.68;6.32;;;1.60;99.90;;;;;;5115846;28;20041;-60
2022/03/31 10:32:34;;;;;;;7.22;6.43;;;1.50;99.90;;;;;;5115788;28;20461;-60
2022/03/31 10:35:01;;;;;;;6.95;5.80;;;1.60;99.90;;;;;;5115256;28;20071;-60
2022/03/31 10:37:38;;;;;;;6.38;5.30;;;1.60;99.90;;;;;;5114204;28;20043;-60
2022/03/31 10:40:10;;;;;;;6.13;5.47;;;1.60;99.90;;;;;;5115903;28;20089;-60
2022/03/31 10:42:36;;;;;;;6.30;5.22;;;1.60;99.90;;;;;;5115627;28;20051;-60
2022/03/31 10:45:07;;;;;;;5.53;5.03;;;1.60;99.90;;;;;;5115589;28;20489;-59
2022/03/31 10:47:36;;;;;;;7.22;5.50;;;1.50;99.90;;;;;;5115666;28;20110;-60
2022/03/31 10:50:02;;;;;;;6.15;5.00;;;1.60;99.90;;;;;;5115671;28;20035;-60
2022/03/31 10:52:28;;;;;;;6.18;5.28;;;1.60;99.90;;;;;;5114984;28;20036;-60
2022/03/31 10:55:18;;;;;;;6.07;4.85;;;1.60;99.90;;;;;;5114958;28;20043;-60
2022/03/31 10:57:45;;;;;;;6.13;5.20;;;1.60;99.90;;;;;;5114818;27;20115;-61
2022/03/31 11:00:17;;;;;;;6.22;4.70;;;1.50;99.90;;;;;;5114838;28;20417;-60
2022/03/31 11:02:45;;;;;;;5.93;5.05;;;1.50;99.90;;;;;;5114641;28;20038;-60
2022/03/31 11:05:12;;;;;;;5.38;4.75;;;1.50;99.90;;;;;;5114786;28;20042;-61
2022/03/31 11:07:38;;;;;;;5.03;4.50;;;1.60;99.90;;;;;;5113264;28;20052;-61
2022/03/31 11:10:07;;;;;;;5.75;4.70;;;1.60;99.90;;;;;;5113635;28;20486;-61
2022/03/31 11:12:33;;;;;;;8.45;5.10;;;1.70;99.90;;;;;;5114877;28;20122;-60
2022/03/31 11:15:08;;;;;;;7.60;5.18;;;1.60;99.90;;;;;;5114292;28;20077;-60
2022/03/31 11:17:36;;;;;;;7.22;4.90;;;1.50;99.90;;;;;;5114573;28;20043;-60
2022/03/31 11:20:13;;;;;;;6.43;4.95;;;1.40;99.90;;;;;;5114670;28;20562;-61
2022/03/31 11:22:44;;;;;;;6.03;5.07;;;1.40;99.90;;;;;;5112858;28;20563;-61
2022/03/31 11:25:11;;;;;;;6.53;4.82;;;1.40;99.90;;;;;;5114530;28;20394;-61
2022/03/31 11:27:39;;;;;;;5.93;5.20;;;1.40;99.90;;;;;;5114229;28;20038;-60
2022/03/31 11:30:09;;;;;;;5.97;5.28;;;1.30;99.90;;;;;;5114403;28;20395;-60
2022/03/31 11:32:36;;;;;;;5.57;4.97;;;1.30;99.90;;;;;;5114392;28;20050;-61
2022/03/31 11:35:21;;;;;;;6.05;5.45;;;1.30;99.90;;;;;;5114229;28;20055;-62
2022/03/31 11:37:52;;;;;;;5.28;4.78;;;1.40;99.90;;;;;;5114111;28;20043;-61
2022/03/31 11:40:23;;;;;;;5.47;4.80;;;1.30;99.90;;;;;;5114151;28;20035;-62
2022/03/31 11:42:51;;;;;;;6.50;5.35;;;1.30;99.90;;;;;;5113238;28;20039;-61
2022/03/31 11:45:33;;;;;;;7.32;5.10;;;1.30;99.90;;;;;;5114127;28;20122;-62
2022/03/31 11:48:05;;;;;;;5.88;5.28;;;1.30;99.90;;;;;;5113847;28;20032;-61
2022/03/31 11:50:33;;;;;;;7.22;5.82;;;1.20;99.90;;;;;;5113885;28;20114;-61
2022/03/31 11:53:00;;;;;;;5.53;4.93;;;1.20;99.90;;;;;;5113842;28;20040;-61
2022/03/31 11:55:27;;;;;;;6.35;5.10;;;1.10;99.90;;;;;;5113704;28;20044;-61
2022/03/31 11:57:58;;;;;;;6.20;5.40;;;1.20;99.90;;;;;;5112321;28;20043;-61
2022/03/31 12:00:27;;;;;;;5.78;5.18;;;1.10;99.90;;;;;;5113877;28;20092;-61
2022/03/31 12:03:03;;;;;;;6.47;5.53;;;1.10;99.90;;;;;;5113851;28;20122;-61
2022/03/31 12:05:30;;;;;;;6.72;5.32;;;1.10;99.90;;;;;;5113826;28;20032;-61
2022/03/31 12:07:57;;;;;;;6.72;5.38;;;1.10;99.90;;;;;;5113617;28;20040;-61
2022/03/31 12:10:23;;;;;;;5.43;4.90;;;1.10;99.90;;;;;;5113813;28;20038;-60
2022/03/31 12:12:54;;;;;;;6.70;5.32;;;1.20;99.90;;;;;;5113597;28;20043;-60
2022/03/31 12:15:25;;;;;;;6.20;5.47;;;1.20;99.90;;;;;;5113535;28;20036;-61
2022/03/31 12:17:56;;;;;;;6.40;5.20;;;1.20;99.90;;;;;;5113494;28;20097;-61
2022/03/31 12:20:22;;;;;;;8.13;5.97;;;1.20;99.90;;;;;;5113419;28;20071;-61
2022/03/31 12:22:48;;;;;;;6.43;5.40;;;1.20;99.90;;;;;;5113242;28;20071;-60
2022/03/31 12:25:24;;;;;;;7.32;6.03;;;1.20;99.90;;;;;;5113206;28;20476;-60
2022/03/31 12:27:50;;;;;;;6.90;5.90;;;1.20;99.90;;;;;;5110803;28;20048;-60
2022/03/31 12:30:16;;;;;;;7.25;6.15;;;1.20;99.90;;;;;;5113126;28;20084;-60
2022/03/31 12:32:47;;;;;;;7.03;6.32;;;1.20;99.90;;;;;;5113693;28;20040;-60
2022/03/31 12:35:12;;;;;;;7.88;6.72;;;1.20;99.90;;;;;;5113246;28;20526;-60
2022/03/31 12:37:39;;;;;;;8.30;7.07;;;1.20;99.90;;;;;;5113614;28;20043;-59
2022/03/31 12:40:13;;;;;;;8.10;7.30;;;1.20;99.90;;;;;;5113047;28;20035;-60
2022/03/31 12:42:53;;;;;;;9.07;7.80;;;1.10;99.90;;;;;;5113292;28;20043;-60
2022/03/31 12:45:19;;;;;;;8.57;7.03;;;1.20;99.90;;;;;;5113401;28;20031;-60
2022/03/31 12:47:47;;;;;;;8.63;7.45;;;1.20;99.90;;;;;;5113550;28;20040;-60
2022/03/31 12:50:20;;;;;;;9.60;7.57;;;1.20;99.90;;;;;;5113021;28;20039;-60
2022/03/31 12:52:59;;;;;;;9.32;8.02;;;1.20;99.90;;;;;;5113038;28;20031;-60
2022/03/31 12:55:29;;;;;;;9.55;7.90;;;1.20;99.90;;;;;;5112897;28;20043;-60
2022/03/31 12:57:57;;;;;;;9.05;7.65;;;1.30;99.90;;;;;;5113366;28;20040;-60
2022/03/31 13:00:23;;;;;;;9.30;8.02;;;1.20;99.90;;;;;;5113232;28;20137;-60
2022/03/31 13:02:49;;;;;;;8.75;7.85;;;1.20;99.90;;;;;;5113010;28;20053;-59
2022/03/31 13:05:19;;;;;;;10.30;8.45;;;1.20;99.90;;;;;;5112834;28;20066;-60